Time;durP1;ratioP1;P1;durP2;ratioP2;P2;SDS_P1;SDS_P2;PMS_P1;PMS_P2;Temp;Humidity;BMP_temperature;BMP_pressure;BME280_temperature;BME280_humidity;BME280_pressure;Samples;Min_cycle;Max_cycle;Signal;HPM_P1;HPM_P2
2021/06/20 00:01:21;;;;;;;6.80;5.38;;;27.90;82.90;;;;;;6122612;23;20018;-74
2021/06/20 00:03:47;;;;;;;7.72;5.88;;;27.90;82.90;;;;;;6096235;23;20014;-74
2021/06/20 00:06:34;;;;;;;8.45;6.15;;;27.90;82.80;;;;;;6122356;23;20071;-74
2021/06/20 00:09:07;;;;;;;7.10;5.65;;;27.80;83.00;;;;;;6073168;23;20013;-74
2021/06/20 00:11:34;;;;;;;8.25;5.68;;;27.90;83.20;;;;;;6073729;23;20105;-75
2021/06/20 00:14:01;;;;;;;6.72;5.63;;;27.90;83.40;;;;;;6073376;23;20356;-76
2021/06/20 00:16:28;;;;;;;6.72;5.85;;;27.80;83.60;;;;;;6073048;23;20045;-74
2021/06/20 00:18:54;;;;;;;7.70;5.60;;;27.80;83.60;;;;;;6122282;23;20014;-74
2021/06/20 00:21:21;;;;;;;6.20;5.28;;;27.80;83.70;;;;;;6122279;23;20455;-73
2021/06/20 00:23:47;;;;;;;10.55;8.68;;;27.80;83.60;;;;;;6096406;23;20092;-73
2021/06/20 00:26:14;;;;;;;15.02;12.70;;;27.80;83.90;;;;;;6122294;23;20089;-73
2021/06/20 00:28:41;;;;;;;17.67;13.50;;;27.80;84.10;;;;;;6122452;23;20018;-75
2021/06/20 00:31:06;;;;;;;18.15;12.18;;;27.70;84.20;;;;;;6122796;23;20096;-74
2021/06/20 00:33:32;;;;;;;14.95;12.68;;;27.80;84.40;;;;;;6123132;23;20056;-74
2021/06/20 00:35:59;;;;;;;16.38;11.57;;;27.70;84.40;;;;;;6072568;23;20014;-73
2021/06/20 00:38:26;;;;;;;13.07;10.25;;;27.60;84.70;;;;;;6122467;23;20017;-73
2021/06/20 00:40:52;;;;;;;16.65;9.35;;;27.60;85.00;;;;;;6096237;23;20014;-73
2021/06/20 00:43:18;;;;;;;13.18;9.50;;;27.60;85.30;;;;;;6122456;23;20014;-73
2021/06/20 00:45:44;;;;;;;11.90;8.73;;;27.60;85.60;;;;;;6122055;23;20460;-74
2021/06/20 00:48:10;;;;;;;9.65;8.10;;;27.60;85.90;;;;;;6122142;23;20013;-74
2021/06/20 00:50:36;;;;;;;12.45;7.88;;;27.50;86.00;;;;;;6122242;23;20014;-73
2021/06/20 00:53:04;;;;;;;9.68;6.97;;;27.50;86.00;;;;;;6096411;23;20020;-73
2021/06/20 00:55:32;;;;;;;11.32;7.75;;;27.50;86.30;;;;;;6122310;23;20014;-73
2021/06/20 00:58:00;;;;;;;9.77;7.65;;;27.50;86.60;;;;;;6122393;23;20037;-73
2021/06/20 01:00:27;;;;;;;13.95;7.53;;;27.40;86.50;;;;;;6096663;23;20014;-73
2021/06/20 01:02:53;;;;;;;10.10;7.07;;;27.40;86.70;;;;;;6097094;23;20089;-73
2021/06/20 01:05:20;;;;;;;9.98;6.95;;;27.40;86.80;;;;;;6122326;23;20052;-74
2021/06/20 01:07:53;;;;;;;8.52;6.88;;;27.30;86.80;;;;;;6122026;23;20021;-74
2021/06/20 01:10:23;;;;;;;12.20;7.47;;;27.40;87.10;;;;;;6096472;23;20067;-73
2021/06/20 01:12:49;;;;;;;9.35;6.82;;;27.30;87.20;;;;;;6121919;23;20029;-73
2021/06/20 01:15:16;;;;;;;9.55;7.03;;;27.30;87.30;;;;;;6096227;23;20014;-72
2021/06/20 01:17:43;;;;;;;8.73;7.18;;;27.30;87.40;;;;;;6122210;23;20460;-73
2021/06/20 01:20:18;;;;;;;9.13;6.80;;;27.30;87.80;;;;;;6096296;23;20056;-73
2021/06/20 01:22:47;;;;;;;10.55;6.65;;;27.30;87.90;;;;;;6097361;23;20018;-73
2021/06/20 01:25:20;;;;;;;8.52;7.55;;;27.30;88.00;;;;;;6096249;23;20017;-74
2021/06/20 01:27:58;;;;;;;10.88;6.90;;;27.30;87.90;;;;;;6072396;23;20017;-73
2021/06/20 01:30:27;;;;;;;10.07;7.30;;;27.40;88.10;;;;;;6072403;23;20018;-73
2021/06/20 01:32:55;;;;;;;12.45;7.07;;;27.40;88.10;;;;;;6096191;23;20025;-73
2021/06/20 01:35:21;;;;;;;11.07;7.10;;;27.40;87.90;;;;;;6096493;23;20085;-73
2021/06/20 01:37:47;;;;;;;8.65;6.63;;;27.50;88.00;;;;;;6072632;23;20018;-73
2021/06/20 01:40:16;;;;;;;8.57;7.03;;;27.50;88.00;;;;;;6096681;23;20013;-73
2021/06/20 01:42:44;;;;;;;9.95;7.35;;;27.60;88.30;;;;;;6097264;23;20014;-73
2021/06/20 01:45:11;;;;;;;12.43;8.13;;;27.60;88.40;;;;;;6096170;23;20460;-73
2021/06/20 01:47:38;;;;;;;9.57;7.30;;;27.60;88.10;;;;;;6122267;23;20522;-73
2021/06/20 01:50:10;;;;;;;9.35;7.53;;;27.60;88.10;;;;;;6072182;23;20152;-73
2021/06/20 01:52:37;;;;;;;10.80;7.85;;;27.60;88.00;;;;;;6096064;23;20022;-74
2021/06/20 01:55:05;;;;;;;9.57;7.82;;;27.60;88.00;;;;;;6096390;23;20012;-75
2021/06/20 01:57:34;;;;;;;11.15;8.15;;;27.50;88.10;;;;;;6121869;23;20014;-74
2021/06/20 02:00:05;;;;;;;11.98;8.10;;;27.50;88.20;;;;;;6096491;23;20006;-73
2021/06/20 02:02:40;;;;;;;11.80;8.18;;;27.50;88.40;;;;;;6097713;23;20101;-73
2021/06/20 02:05:06;;;;;;;13.23;8.10;;;27.50;88.70;;;;;;6096222;23;20159;-73
2021/06/20 02:07:37;;;;;;;8.35;7.53;;;27.50;88.80;;;;;;6121777;23;20013;-73
2021/06/20 02:10:06;;;;;;;8.80;7.78;;;27.50;88.80;;;;;;6095956;23;20014;-73
2021/06/20 02:12:32;;;;;;;10.95;7.25;;;27.50;88.60;;;;;;6096112;23;20025;-73
2021/06/20 02:14:58;;;;;;;11.55;7.90;;;27.60;88.60;;;;;;6096074;23;20018;-73
2021/06/20 02:17:28;;;;;;;9.38;7.38;;;27.60;88.60;;;;;;6096366;23;20010;-73
2021/06/20 02:19:59;;;;;;;12.02;8.10;;;27.70;88.40;;;;;;6096154;23;20064;-73
2021/06/20 02:22:29;;;;;;;9.77;7.97;;;27.80;88.30;;;;;;6072408;23;20017;-73
2021/06/20 02:24:55;;;;;;;9.95;7.53;;;27.90;88.10;;;;;;6096164;23;20013;-72
2021/06/20 02:27:21;;;;;;;10.20;7.85;;;28.10;88.40;;;;;;6122088;23;20010;-72
2021/06/20 02:29:50;;;;;;;9.02;7.55;;;28.10;88.40;;;;;;6096201;23;20033;-73
2021/06/20 02:32:17;;;;;;;10.40;7.32;;;28.20;89.00;;;;;;6121589;23;20025;-74
2021/06/20 02:34:43;;;;;;;8.35;7.28;;;28.30;89.00;;;;;;6121632;23;20103;-74
2021/06/20 02:37:11;;;;;;;10.18;7.40;;;28.30;89.00;;;;;;6121979;23;20014;-74
2021/06/20 02:39:38;;;;;;;9.00;7.28;;;28.40;89.00;;;;;;6096024;23;20006;-74
2021/06/20 02:42:06;;;;;;;11.38;6.90;;;28.50;88.80;;;;;;6095639;23;20014;-73
2021/06/20 02:44:32;;;;;;;8.18;7.28;;;28.50;88.60;;;;;;6095939;23;20010;-73
2021/06/20 02:47:01;;;;;;;9.75;7.25;;;28.60;88.40;;;;;;6121927;23;20160;-73
2021/06/20 02:49:28;;;;;;;8.05;6.47;;;28.70;88.60;;;;;;6121541;23;20024;-73
2021/06/20 02:51:55;;;;;;;7.60;6.80;;;28.70;88.60;;;;;;6095637;23;20010;-73
2021/06/20 02:54:22;;;;;;;8.50;6.95;;;28.80;89.50;;;;;;6121424;23;20472;-73
2021/06/20 02:56:48;;;;;;;8.32;6.68;;;;;;;;;;6071747;23;20021;-73
2021/06/20 02:59:16;;;;;;;9.02;6.75;;;;;;;;;;6121670;23;20475;-74
2021/06/20 03:01:42;;;;;;;8.07;6.80;;;28.60;92.30;;;;;;6072451;23;20014;-74
2021/06/20 03:04:08;;;;;;;8.90;6.60;;;29.00;92.20;;;;;;6121245;23;20014;-73
2021/06/20 03:06:34;;;;;;;10.38;6.55;;;29.00;92.60;;;;;;6122505;23;20013;-74
2021/06/20 03:09:00;;;;;;;8.70;6.68;;;29.10;92.60;;;;;;6121750;23;20063;-74
2021/06/20 03:11:27;;;;;;;7.47;6.68;;;;;;;;;;6121699;23;20014;-74
2021/06/20 03:13:53;;;;;;;8.15;7.07;;;29.10;92.80;;;;;;6121684;23;20022;-74
2021/06/20 03:16:20;;;;;;;9.52;6.80;;;29.10;89.30;;;;;;6121683;23;20018;-73
2021/06/20 03:18:47;;;;;;;7.57;6.68;;;29.10;87.10;;;;;;6095543;23;20089;-74
2021/06/20 03:21:15;;;;;;;9.45;6.70;;;29.10;85.80;;;;;;6095865;23;20010;-74
2021/06/20 03:23:41;;;;;;;10.88;6.60;;;29.20;85.40;;;;;;6095707;23;20390;-73
2021/06/20 03:26:07;;;;;;;8.90;6.70;;;29.20;85.50;;;;;;6121214;23;20525;-74
2021/06/20 03:28:33;;;;;;;10.35;7.20;;;29.30;85.50;;;;;;6121584;23;20018;-74
2021/06/20 03:30:58;;;;;;;10.15;7.20;;;29.30;86.50;;;;;;6121063;23;20093;-74
2021/06/20 03:33:24;;;;;;;10.07;7.38;;;29.40;85.10;;;;;;6095781;23;20101;-74
2021/06/20 03:35:50;;;;;;;8.00;6.78;;;29.50;84.80;;;;;;6121109;23;20049;-74
2021/06/20 03:38:16;;;;;;;11.60;7.22;;;29.50;84.60;;;;;;6121527;23;20017;-73
2021/06/20 03:40:42;;;;;;;12.10;7.13;;;29.60;85.80;;;;;;6095854;23;20006;-74
2021/06/20 03:43:08;;;;;;;8.63;6.70;;;29.70;85.00;;;;;;6121437;23;20018;-74
2021/06/20 03:45:35;;;;;;;10.45;6.88;;;29.70;84.30;;;;;;6071681;23;20389;-75
2021/06/20 03:48:01;;;;;;;8.88;6.13;;;29.80;83.30;;;;;;6096530;23;20347;-74
2021/06/20 03:50:27;;;;;;;8.80;6.75;;;29.80;83.10;;;;;;6095259;23;20076;-74
2021/06/20 03:52:53;;;;;;;10.35;6.38;;;29.90;82.70;;;;;;6095665;23;20026;-73
2021/06/20 03:55:19;;;;;;;8.02;6.55;;;29.90;82.60;;;;;;6095426;23;20510;-73
2021/06/20 03:57:45;;;;;;;9.55;6.25;;;30.00;83.30;;;;;;6095512;23;20014;-73
2021/06/20 04:00:12;;;;;;;8.07;6.25;;;30.00;84.60;;;;;;6121186;23;20018;-73
2021/06/20 04:02:38;;;;;;;8.32;6.00;;;30.10;84.10;;;;;;6071136;23;20068;-74
2021/06/20 04:05:06;;;;;;;9.95;6.22;;;30.20;86.00;;;;;;6071367;23;20041;-74
2021/06/20 04:07:33;;;;;;;8.05;6.18;;;30.20;86.90;;;;;;6096028;23;20014;-73
2021/06/20 04:09:59;;;;;;;11.35;6.70;;;30.20;89.10;;;;;;6094962;23;20010;-72
2021/06/20 04:12:25;;;;;;;10.13;5.88;;;30.40;89.60;;;;;;6070893;23;20075;-73
2021/06/20 04:14:51;;;;;;;8.52;5.75;;;30.40;85.40;;;;;;6121377;23;20017;-73
2021/06/20 04:17:17;;;;;;;13.05;6.47;;;30.40;85.90;;;;;;6096675;23;20452;-73
2021/06/20 04:19:43;;;;;;;8.95;5.70;;;30.50;85.70;;;;;;6122403;23;20091;-73
2021/06/20 04:22:09;;;;;;;9.13;5.47;;;30.50;85.80;;;;;;6123205;23;20095;-73
2021/06/20 04:24:35;;;;;;;11.27;6.05;;;30.70;86.10;;;;;;6096677;23;20013;-73
2021/06/20 04:27:01;;;;;;;8.18;5.00;;;30.70;85.70;;;;;;6122454;23;20037;-73
2021/06/20 04:29:27;;;;;;;8.93;5.53;;;30.70;85.80;;;;;;6096696;23;20010;-72
2021/06/20 04:31:53;;;;;;;9.32;5.60;;;30.80;85.70;;;;;;6121828;23;20582;-74
2021/06/20 04:34:19;;;;;;;8.70;5.70;;;30.80;85.50;;;;;;6122771;23;20420;-73
2021/06/20 04:36:45;;;;;;;9.13;5.38;;;30.90;85.60;;;;;;6096525;23;20007;-73
2021/06/20 04:39:11;;;;;;;7.13;5.15;;;31.00;85.80;;;;;;6122157;23;20021;-73
2021/06/20 04:41:38;;;;;;;6.75;4.63;;;31.00;85.50;;;;;;6072250;23;20392;-73
2021/06/20 04:44:07;;;;;;;7.65;4.65;;;31.00;85.20;;;;;;6096319;23;20060;-73
2021/06/20 04:46:35;;;;;;;8.10;5.13;;;31.10;85.20;;;;;;6096626;23;20010;-73
2021/06/20 04:49:06;;;;;;;7.43;5.30;;;31.20;85.00;;;;;;6096287;23;20067;-73
2021/06/20 04:51:34;;;;;;;7.25;4.90;;;31.20;84.60;;;;;;6072470;23;20037;-73
2021/06/20 04:54:00;;;;;;;8.15;4.85;;;31.30;85.00;;;;;;6122009;23;20356;-73
2021/06/20 04:56:26;;;;;;;8.43;5.20;;;31.40;85.20;;;;;;6122013;23;20151;-73
2021/06/20 04:58:54;;;;;;;7.50;4.90;;;31.50;85.10;;;;;;6122957;23;20419;-73
2021/06/20 05:01:20;;;;;;;6.90;4.40;;;31.50;85.10;;;;;;6096509;23;20355;-73
2021/06/20 05:03:45;;;;;;;8.27;4.70;;;31.60;85.00;;;;;;6122378;23;20010;-73
2021/06/20 05:06:11;;;;;;;6.82;4.10;;;31.70;85.70;;;;;;6122024;23;20017;-73
2021/06/20 05:08:37;;;;;;;7.70;5.00;;;31.70;85.00;;;;;;6096083;23;20036;-73
2021/06/20 05:11:03;;;;;;;7.50;4.50;;;31.80;85.20;;;;;;6122037;23;20063;-74
2021/06/20 05:13:29;;;;;;;8.63;4.72;;;31.90;85.20;;;;;;6121992;23;20441;-73
2021/06/20 05:15:55;;;;;;;5.93;4.55;;;31.90;85.00;;;;;;6096271;23;20006;-73
2021/06/20 05:18:21;;;;;;;5.50;4.10;;;32.00;85.10;;;;;;6121860;23;20010;-73
2021/06/20 05:20:48;;;;;;;9.35;4.47;;;32.10;84.90;;;;;;6096136;23;20014;-74
2021/06/20 05:23:14;;;;;;;6.53;4.13;;;32.10;84.60;;;;;;6121987;23;20424;-73
2021/06/20 05:25:39;;;;;;;5.60;3.97;;;32.20;84.60;;;;;;6122144;23;20020;-74
2021/06/20 05:28:06;;;;;;;6.40;3.63;;;32.30;84.50;;;;;;6122160;23;20097;-74
2021/06/20 05:30:32;;;;;;;8.25;4.22;;;32.30;84.30;;;;;;6122212;23;20035;-72
2021/06/20 05:32:58;;;;;;;5.60;3.80;;;32.40;84.40;;;;;;6122070;23;20022;-73
2021/06/20 05:35:23;;;;;;;7.68;3.88;;;32.40;84.10;;;;;;6122178;23;20017;-73
2021/06/20 05:37:49;;;;;;;4.72;4.00;;;32.50;84.00;;;;;;6121935;23;20395;-74
2021/06/20 05:40:16;;;;;;;4.90;3.50;;;32.50;84.10;;;;;;6122219;23;20044;-73
2021/06/20 05:42:42;;;;;;;5.40;3.70;;;32.60;83.70;;;;;;6122142;23;20060;-74
2021/06/20 05:45:09;;;;;;;6.45;3.72;;;32.70;83.60;;;;;;6122162;23;20067;-73
2021/06/20 05:47:35;;;;;;;8.50;3.25;;;32.80;83.40;;;;;;6072501;23;20010;-72
2021/06/20 05:50:01;;;;;;;3.42;3.13;;;32.80;83.60;;;;;;6121926;23;20041;-73
2021/06/20 05:52:27;;;;;;;3.78;3.08;;;32.90;84.80;;;;;;6122065;23;20018;-73
2021/06/20 05:54:53;;;;;;;6.00;2.90;;;32.90;81.50;;;;;;6122116;23;20014;-74
2021/06/20 05:57:21;;;;;;;7.13;3.05;;;33.00;81.70;;;;;;6122800;23;20040;-74
2021/06/20 05:59:47;;;;;;;3.78;3.33;;;33.00;81.80;;;;;;6096144;23;20109;-73
2021/06/20 06:02:14;;;;;;;3.85;2.70;;;33.10;82.30;;;;;;6122285;23;20014;-73
2021/06/20 06:04:42;;;;;;;3.70;2.70;;;33.10;82.30;;;;;;6096669;23;20006;-72
2021/06/20 06:07:08;;;;;;;3.67;2.95;;;33.20;83.10;;;;;;6096163;23;20116;-73
2021/06/20 06:09:38;;;;;;;4.53;2.85;;;33.20;83.90;;;;;;6121989;23;20340;-74
2021/06/20 06:12:05;;;;;;;4.85;2.83;;;33.30;84.40;;;;;;6122072;23;20018;-74
2021/06/20 06:14:31;;;;;;;5.75;3.08;;;33.40;84.70;;;;;;6096668;23;20436;-72
2021/06/20 06:16:57;;;;;;;5.15;2.50;;;33.40;84.10;;;;;;6121970;23;20010;-73
2021/06/20 06:19:24;;;;;;;5.68;2.80;;;33.40;84.10;;;;;;6072322;23;20009;-73
2021/06/20 06:21:50;;;;;;;3.47;2.22;;;33.50;83.60;;;;;;6072112;23;20089;-74
2021/06/20 06:24:17;;;;;;;5.95;2.50;;;33.50;84.10;;;;;;6096491;23;20014;-73
2021/06/20 06:26:43;;;;;;;6.05;3.13;;;33.60;84.20;;;;;;6121914;23;20025;-73
2021/06/20 06:29:09;;;;;;;3.00;2.30;;;33.60;84.70;;;;;;6121612;23;20014;-73
2021/06/20 06:31:36;;;;;;;3.63;2.35;;;33.70;84.20;;;;;;6121788;23;20018;-73
2021/06/20 06:34:03;;;;;;;3.42;2.50;;;33.80;84.80;;;;;;6122730;23;20026;-74
2021/06/20 06:36:29;;;;;;;2.92;2.22;;;33.80;83.90;;;;;;6121868;23;20391;-73
2021/06/20 06:38:55;;;;;;;3.38;2.70;;;33.90;83.70;;;;;;6095899;23;20024;-73
2021/06/20 06:41:21;;;;;;;3.55;2.65;;;33.90;83.30;;;;;;6121350;23;20010;-73
2021/06/20 06:43:47;;;;;;;5.43;2.58;;;34.00;83.10;;;;;;6122193;23;20014;-73
2021/06/20 06:46:13;;;;;;;4.95;2.40;;;34.10;83.00;;;;;;6121844;23;20018;-73
2021/06/20 06:48:39;;;;;;;3.40;2.67;;;34.10;83.50;;;;;;6095965;23;20101;-74
2021/06/20 06:51:06;;;;;;;4.45;2.90;;;34.10;83.70;;;;;;6121376;23;20025;-73
2021/06/20 06:53:32;;;;;;;4.68;2.60;;;34.10;83.70;;;;;;6121469;23;20398;-73
2021/06/20 06:55:58;;;;;;;4.22;2.70;;;34.20;83.60;;;;;;6121778;23;20042;-73
2021/06/20 06:58:24;;;;;;;5.50;2.83;;;34.20;82.20;;;;;;6121883;23;20393;-74
2021/06/20 07:00:50;;;;;;;5.18;2.85;;;34.20;81.10;;;;;;6121798;23;20013;-73
2021/06/20 07:03:17;;;;;;;4.15;2.75;;;34.30;80.90;;;;;;6121665;23;20022;-74
2021/06/20 07:05:43;;;;;;;4.22;2.55;;;34.30;80.60;;;;;;6095856;23;20014;-73
2021/06/20 07:08:10;;;;;;;4.10;3.08;;;34.30;80.40;;;;;;6071637;23;20398;-73
2021/06/20 07:10:36;;;;;;;4.63;2.50;;;34.40;80.80;;;;;;6121587;23;20379;-73
2021/06/20 07:13:03;;;;;;;3.13;2.60;;;34.40;80.70;;;;;;6121371;23;20044;-74
2021/06/20 07:15:29;;;;;;;3.10;2.40;;;34.40;81.00;;;;;;6071672;23;20018;-73
2021/06/20 07:17:55;;;;;;;6.22;2.60;;;34.50;80.90;;;;;;6121651;23;20013;-73
2021/06/20 07:20:22;;;;;;;8.40;2.55;;;34.50;80.70;;;;;;6121570;23;20014;-73
2021/06/20 07:22:49;;;;;;;5.75;2.75;;;34.40;80.50;;;;;;6120922;23;20020;-73
2021/06/20 07:25:19;;;;;;;3.75;2.45;;;34.50;80.90;;;;;;6071465;23;20013;-73
2021/06/20 07:27:46;;;;;;;4.22;2.72;;;34.50;80.40;;;;;;6121331;23;20048;-73
2021/06/20 07:30:14;;;;;;;5.45;2.28;;;34.50;80.80;;;;;;6121051;23;20060;-73
2021/06/20 07:32:42;;;;;;;5.63;2.40;;;34.50;80.50;;;;;;6094963;23;20021;-74
2021/06/20 07:35:08;;;;;;;3.72;2.70;;;34.50;81.10;;;;;;6095724;23;20014;-74
2021/06/20 07:37:36;;;;;;;4.30;2.63;;;34.50;81.50;;;;;;6095547;23;20014;-74
2021/06/20 07:40:05;;;;;;;3.85;2.63;;;34.50;81.10;;;;;;6095352;23;20010;-74
2021/06/20 07:42:31;;;;;;;4.53;2.42;;;34.50;80.10;;;;;;6095815;23;20045;-74
2021/06/20 07:44:57;;;;;;;5.50;2.53;;;34.40;79.50;;;;;;6121377;23;20021;-75
2021/06/20 07:47:23;;;;;;;3.80;2.38;;;34.50;78.60;;;;;;6071474;23;20010;-73
2021/06/20 07:49:49;;;;;;;5.18;2.70;;;34.40;77.90;;;;;;6121171;23;20014;-74
2021/06/20 07:52:15;;;;;;;3.53;2.65;;;34.40;78.70;;;;;;6122514;23;20017;-73
2021/06/20 07:54:49;;;;;;;7.53;3.00;;;34.30;79.00;;;;;;6122148;23;20018;-74
2021/06/20 07:57:20;;;;;;;4.00;2.67;;;34.30;79.50;;;;;;6122664;23;20092;-74
2021/06/20 07:59:50;;;;;;;5.47;2.53;;;34.30;80.90;;;;;;6096666;23;20035;-73
2021/06/20 08:02:17;;;;;;;3.35;2.55;;;34.30;80.20;;;;;;6096469;23;20014;-73
2021/06/20 08:04:44;;;;;;;3.60;2.30;;;34.30;80.90;;;;;;6122524;23;20417;-73
2021/06/20 08:07:10;;;;;;;3.22;2.58;;;34.30;80.60;;;;;;6096322;23;20014;-74
2021/06/20 08:09:36;;;;;;;4.25;2.25;;;34.20;80.20;;;;;;6096532;23;20073;-73
2021/06/20 08:12:03;;;;;;;3.65;2.20;;;34.20;80.40;;;;;;6122534;23;20022;-73
2021/06/20 08:14:28;;;;;;;3.25;2.17;;;34.20;80.10;;;;;;6096530;23;20048;-73
2021/06/20 08:16:55;;;;;;;4.50;2.30;;;34.10;78.00;;;;;;6122239;23;20031;-73
2021/06/20 08:19:21;;;;;;;4.15;2.33;;;34.10;78.10;;;;;;6096900;23;20433;-74
2021/06/20 08:21:47;;;;;;;4.70;2.20;;;34.10;78.20;;;;;;6096488;23;20056;-73
2021/06/20 08:24:14;;;;;;;3.30;2.10;;;34.10;77.60;;;;;;6122566;23;20009;-74
2021/06/20 08:26:41;;;;;;;4.35;2.35;;;34.00;77.80;;;;;;6122602;23;20014;-73
2021/06/20 08:29:07;;;;;;;3.72;2.45;;;34.10;76.70;;;;;;6096555;23;20100;-73
2021/06/20 08:31:34;;;;;;;3.63;2.40;;;34.00;76.30;;;;;;6122382;23;20010;-73
2021/06/20 08:34:00;;;;;;;4.70;2.40;;;34.00;76.30;;;;;;6123250;23;20360;-74
2021/06/20 08:36:27;;;;;;;2.92;2.28;;;33.90;76.10;;;;;;6096437;23;20018;-73
2021/06/20 08:38:54;;;;;;;2.72;2.20;;;33.90;76.10;;;;;;6122312;23;20016;-74
2021/06/20 08:41:22;;;;;;;4.30;2.47;;;34.00;75.30;;;;;;6096618;23;20014;-73
2021/06/20 08:43:51;;;;;;;2.70;2.40;;;33.90;75.80;;;;;;6122454;23;20087;-74
2021/06/20 08:46:18;;;;;;;3.70;2.47;;;33.90;76.00;;;;;;6096525;23;20006;-74
2021/06/20 08:48:45;;;;;;;5.10;2.38;;;33.80;76.80;;;;;;6096404;23;20009;-74
2021/06/20 08:51:11;;;;;;;2.85;2.53;;;33.80;76.20;;;;;;6121794;23;20021;-75
2021/06/20 08:53:36;;;;;;;4.13;2.70;;;33.80;76.80;;;;;;6122064;23;20021;-73
2021/06/20 08:56:03;;;;;;;6.10;2.78;;;33.80;76.30;;;;;;6096392;23;20029;-73
2021/06/20 08:58:33;;;;;;;2.35;2.10;;;33.80;75.50;;;;;;6096489;23;20105;-73
2021/06/20 09:01:02;;;;;;;4.38;2.33;;;33.80;75.50;;;;;;6121676;23;20084;-74
2021/06/20 09:03:57;;;;;;;3.72;2.45;;;33.70;75.70;;;;;;6121958;23;20018;-73
2021/06/20 09:06:24;;;;;;;4.72;1.88;;;33.70;75.50;;;;;;6103282;23;20058;-74
2021/06/20 09:09:03;;;;;;;2.92;2.30;;;33.70;76.20;;;;;;6096578;23;20010;-74
2021/06/20 09:11:35;;;;;;;3.53;2.22;;;33.60;76.20;;;;;;6096214;23;20359;-74
2021/06/20 09:14:11;;;;;;;3.63;2.40;;;33.60;75.60;;;;;;6072872;23;20036;-73
2021/06/20 09:16:51;;;;;;;2.50;2.30;;;33.60;75.80;;;;;;6096376;23;20513;-74
2021/06/20 09:19:29;;;;;;;4.10;2.40;;;33.60;75.80;;;;;;6096781;23;20471;-73
2021/06/20 09:21:59;;;;;;;3.13;2.60;;;33.60;75.80;;;;;;6096263;23;20041;-73
2021/06/20 09:24:25;;;;;;;4.15;2.10;;;33.60;75.90;;;;;;6122300;23;20022;-73
2021/06/20 09:26:54;;;;;;;2.55;2.35;;;33.50;75.20;;;;;;6122450;23;20051;-74
2021/06/20 09:29:34;;;;;;;2.78;2.30;;;33.50;75.10;;;;;;6121992;23;20060;-73
2021/06/20 09:32:03;;;;;;;2.72;2.30;;;33.40;75.40;;;;;;6121656;23;20026;-73
2021/06/20 09:34:49;;;;;;;3.60;2.45;;;33.50;76.10;;;;;;6096235;23;20018;-73
2021/06/20 09:37:19;;;;;;;3.13;2.30;;;33.50;76.30;;;;;;6096398;23;20033;-73
2021/06/20 09:39:45;;;;;;;2.75;2.47;;;33.40;76.60;;;;;;6122232;23;20017;-73
2021/06/20 09:42:17;;;;;;;2.40;2.20;;;33.50;76.60;;;;;;6121650;23;20014;-74
2021/06/20 09:44:49;;;;;;;2.83;2.30;;;33.40;76.20;;;;;;6072319;23;20021;-74
2021/06/20 09:47:18;;;;;;;7.47;2.28;;;33.40;76.70;;;;;;6096116;23;20010;-74
2021/06/20 09:49:46;;;;;;;2.50;2.30;;;33.40;76.10;;;;;;6122348;23;20006;-73
2021/06/20 09:52:12;;;;;;;3.08;2.22;;;33.40;75.60;;;;;;6121947;23;20014;-74
2021/06/20 09:54:44;;;;;;;3.13;2.80;;;33.30;75.60;;;;;;6122162;23;20033;-73
2021/06/20 09:57:17;;;;;;;4.03;2.47;;;33.30;77.00;;;;;;6072147;23;20021;-74
2021/06/20 09:59:55;;;;;;;3.72;2.20;;;33.30;77.40;;;;;;6072208;23;20025;-74
2021/06/20 10:02:34;;;;;;;3.63;2.65;;;33.30;77.80;;;;;;6072247;23;20075;-74
2021/06/20 10:05:00;;;;;;;2.55;2.35;;;33.30;77.00;;;;;;6072411;23;20018;-73
2021/06/20 10:07:28;;;;;;;2.88;2.50;;;33.30;76.90;;;;;;6071594;23;20064;-73
2021/06/20 10:09:56;;;;;;;3.22;2.60;;;33.30;77.00;;;;;;6095904;23;20093;-75
2021/06/20 10:12:23;;;;;;;3.28;2.58;;;33.20;77.10;;;;;;6095451;23;20479;-74
2021/06/20 10:14:51;;;;;;;3.08;2.20;;;33.10;76.10;;;;;;6095830;23;20022;-72
2021/06/20 10:17:37;;;;;;;3.08;2.30;;;33.10;76.30;;;;;;6095888;23;20392;-73
2021/06/20 10:20:07;;;;;;;3.22;2.53;;;33.10;77.00;;;;;;6096267;23;20452;-73
2021/06/20 10:22:45;;;;;;;2.85;2.63;;;33.10;77.50;;;;;;6095839;23;20014;-74
2021/06/20 10:25:40;;;;;;;5.47;3.00;;;33.10;77.50;;;;;;6096432;23;20006;-74
2021/06/20 10:28:12;;;;;;;4.20;2.60;;;33.10;77.70;;;;;;6102291;23;20014;-74
2021/06/20 10:30:40;;;;;;;3.25;2.50;;;33.10;78.50;;;;;;6071972;23;20010;-73
2021/06/20 10:33:15;;;;;;;3.85;2.70;;;33.10;78.30;;;;;;6095376;23;20087;-74
2021/06/20 10:35:43;;;;;;;5.00;2.90;;;33.10;78.20;;;;;;6095932;23;20014;-73
2021/06/20 10:38:29;;;;;;;3.75;2.60;;;33.10;77.20;;;;;;6072456;23;20010;-73
2021/06/20 10:40:55;;;;;;;4.70;2.53;;;33.10;77.60;;;;;;6121858;23;20343;-73
2021/06/20 10:43:22;;;;;;;3.65;2.47;;;33.10;77.60;;;;;;6121098;23;20037;-73
2021/06/20 10:45:49;;;;;;;4.57;2.83;;;33.10;77.40;;;;;;6121353;23;20424;-73
2021/06/20 10:48:20;;;;;;;2.83;2.50;;;33.10;75.30;;;;;;6071455;23;20033;-74
2021/06/20 10:50:50;;;;;;;3.97;3.30;;;33.10;73.80;;;;;;6096119;23;20014;-73
2021/06/20 10:53:17;;;;;;;4.15;2.60;;;33.00;73.70;;;;;;6121499;23;20522;-72
2021/06/20 10:55:45;;;;;;;6.57;2.65;;;33.00;73.70;;;;;;6071779;23;20025;-73
2021/06/20 10:58:16;;;;;;;4.70;2.35;;;33.00;73.00;;;;;;6095869;23;20010;-73
2021/06/20 11:00:42;;;;;;;3.67;2.50;;;33.00;72.70;;;;;;6095857;23;20093;-74
2021/06/20 11:03:14;;;;;;;2.85;2.60;;;33.00;73.20;;;;;;6095961;23;20046;-74
2021/06/20 11:05:49;;;;;;;3.30;2.90;;;33.00;73.20;;;;;;6096049;23;20010;-73
2021/06/20 11:08:36;;;;;;;4.88;2.60;;;32.90;72.80;;;;;;6121948;23;20021;-74
2021/06/20 11:11:13;;;;;;;2.97;2.42;;;32.90;73.20;;;;;;6072033;23;20405;-74
2021/06/20 11:14:07;;;;;;;3.08;2.58;;;32.90;73.60;;;;;;6071911;23;20018;-73
2021/06/20 11:16:34;;;;;;;6.05;2.60;;;32.90;73.30;;;;;;6102936;23;20100;-74
2021/06/20 11:19:12;;;;;;;3.28;2.38;;;32.90;73.30;;;;;;6095671;23;20092;-74
2021/06/20 11:22:03;;;;;;;4.80;2.67;;;32.90;72.90;;;;;;6121474;23;20014;-73
2021/06/20 11:24:36;;;;;;;3.58;2.63;;;32.90;72.50;;;;;;6097543;23;20018;-73
2021/06/20 11:27:12;;;;;;;7.88;2.65;;;32.90;72.60;;;;;;6074542;23;20006;-74
2021/06/20 11:29:43;;;;;;;2.78;2.58;;;32.90;72.30;;;;;;6099347;23;20009;-74
2021/06/20 11:32:19;;;;;;;4.70;2.97;;;32.90;72.40;;;;;;6098768;23;20017;-73
2021/06/20 11:34:50;;;;;;;3.13;2.50;;;32.80;72.40;;;;;;6098990;23;20016;-74
2021/06/20 11:37:24;;;;;;;3.50;2.72;;;32.80;72.90;;;;;;6098744;23;20014;-75
2021/06/20 11:39:54;;;;;;;4.70;2.60;;;32.80;72.50;;;;;;6098702;23;20025;-74
2021/06/20 11:42:40;;;;;;;3.72;2.67;;;32.80;72.60;;;;;;6098778;23;20009;-74
2021/06/20 11:45:08;;;;;;;3.67;2.40;;;32.70;72.80;;;;;;6075740;23;20017;-75
2021/06/20 11:47:37;;;;;;;2.72;2.53;;;32.80;72.90;;;;;;6124252;23;20017;-73
2021/06/20 11:50:27;;;;;;;2.78;2.58;;;32.80;72.90;;;;;;6074859;23;20024;-75
2021/06/20 11:53:03;;;;;;;3.53;2.80;;;32.80;72.90;;;;;;6074523;23;20016;-74
2021/06/20 11:55:31;;;;;;;3.92;2.70;;;32.80;72.80;;;;;;6099706;23;20021;-74
2021/06/20 11:58:05;;;;;;;3.40;2.22;;;32.80;72.60;;;;;;6124192;23;20449;-73
2021/06/20 12:00:33;;;;;;;2.83;2.60;;;32.70;72.00;;;;;;6098383;23;20010;-74
2021/06/20 12:03:06;;;;;;;4.63;2.38;;;32.70;71.90;;;;;;6098661;23;20013;-74
2021/06/20 12:05:44;;;;;;;5.18;2.33;;;32.70;72.00;;;;;;6098497;23;20010;-74
2021/06/20 12:08:11;;;;;;;4.65;2.50;;;32.70;72.00;;;;;;6124433;23;20075;-73
2021/06/20 12:10:40;;;;;;;3.38;2.47;;;32.70;72.20;;;;;;6124047;23;20010;-73
2021/06/20 12:13:07;;;;;;;2.53;2.33;;;32.70;71.90;;;;;;6074332;23;20021;-73
2021/06/20 12:15:36;;;;;;;3.63;2.55;;;32.70;71.60;;;;;;6124242;23;20036;-74
2021/06/20 12:18:09;;;;;;;3.80;2.58;;;32.70;71.50;;;;;;6124179;23;20036;-73
2021/06/20 12:20:41;;;;;;;2.78;2.53;;;32.70;71.50;;;;;;6124326;23;20018;-74
2021/06/20 12:23:09;;;;;;;3.05;2.78;;;32.70;71.40;;;;;;6098080;23;20410;-72
2021/06/20 12:25:46;;;;;;;3.58;2.90;;;32.70;71.50;;;;;;6098250;23;20018;-73
2021/06/20 12:28:13;;;;;;;3.78;2.83;;;32.70;71.60;;;;;;6098148;23;20467;-73
2021/06/20 12:30:41;;;;;;;3.22;2.92;;;32.70;71.00;;;;;;6124092;23;20153;-74
2021/06/20 12:33:13;;;;;;;3.25;2.63;;;32.70;71.60;;;;;;6097767;23;20064;-73
2021/06/20 12:35:40;;;;;;;3.03;2.70;;;32.70;71.50;;;;;;6122773;23;20025;-73
2021/06/20 12:38:18;;;;;;;2.90;2.63;;;32.60;71.30;;;;;;6122379;23;20060;-73
2021/06/20 12:40:45;;;;;;;3.95;2.75;;;32.50;71.30;;;;;;6122515;23;20010;-74
2021/06/20 12:43:16;;;;;;;4.57;2.65;;;32.50;71.70;;;;;;6122243;23;20018;-74
2021/06/20 12:45:43;;;;;;;2.97;2.67;;;32.50;71.40;;;;;;6122210;23;20097;-73
2021/06/20 12:48:17;;;;;;;5.18;2.90;;;32.50;71.30;;;;;;6096433;23;20010;-74
2021/06/20 12:50:50;;;;;;;3.28;2.97;;;32.50;71.90;;;;;;6096515;23;20025;-74
2021/06/20 12:53:31;;;;;;;3.65;2.50;;;32.50;71.60;;;;;;6122356;23;20109;-74